ADDS METAR Data

Data at: 1831 UTC 20 Jul 2018

METAR for:KBML (Berlin Muni, NH, US)
Text:KBML 201752Z AUTO 22004KT 10SM CLR 28/12 A3017 RMK AO2 SLP215 T02830117 10289 20117 58012
Temperature: 28.3°C ( 83°F)
Dewpoint: 11.7°C ( 53°F) [RH = 36%]
Pressure (altimeter):30.17 inches Hg (1021.8 mb) [Sea level pressure: 1021.5 mb]
Winds:from the SW (220 degrees) at 5 MPH (4 knots; 2.1 m/s)
Visibility:10 or more sm (16+ km)
Ceiling:at least 12,000 feet AGL
Clouds:sky clear below 12,000 feet AGL
QC Flag:automated observation with no human augmentation